Time;durP1;ratioP1;P1;durP2;ratioP2;P2;SDS_P1;SDS_P2;PMS_P1;PMS_P2;Temp;Humidity;BMP_temperature;BMP_pressure;BME280_temperature;BME280_humidity;BME280_pressure;Samples;Min_cycle;Max_cycle;Signal;HPM_P1;HPM_P2
2022/03/05 00:00:30;;;;;;;4.23;3.57;;;0.00;1.00;;;;;;5046014;28;20691;-74
2022/03/05 00:02:57;;;;;;;3.03;2.83;;;-0.10;1.00;;;;;;5035817;28;20203;-73
2022/03/05 00:05:23;;;;;;;3.38;3.17;;;0.00;1.00;;;;;;5043174;28;20175;-73
2022/03/05 00:07:49;;;;;;;2.93;2.73;;;-0.10;1.00;;;;;;5056031;28;20174;-74
2022/03/05 00:10:14;;;;;;;3.00;2.83;;;-0.10;1.00;;;;;;5044642;28;20588;-67
2022/03/05 00:12:40;;;;;;;5.53;4.30;;;-0.10;1.00;;;;;;5035755;28;20464;-73
2022/03/05 00:15:06;;;;;;;3.27;2.50;;;-0.10;1.00;;;;;;5049136;28;20233;-66
2022/03/05 00:17:32;;;;;;;4.75;3.33;;;-0.20;1.00;;;;;;5055598;28;20467;-66
2022/03/05 00:19:58;;;;;;;2.63;2.43;;;-0.20;1.00;;;;;;5053013;28;20190;-67
2022/03/05 00:22:24;;;;;;;4.27;3.27;;;-0.20;1.00;;;;;;5055365;28;20207;-73
2022/03/05 00:24:50;;;;;;;5.82;3.53;;;-0.20;1.00;;;;;;5043184;28;20426;-73
2022/03/05 00:27:17;;;;;;;5.43;3.40;;;-0.20;1.00;;;;;;5035913;28;20183;-69
2022/03/05 00:29:43;;;;;;;3.35;2.92;;;-0.20;1.00;;;;;;5034908;28;20164;-67
2022/03/05 00:32:09;;;;;;;3.30;3.00;;;-0.20;1.00;;;;;;5044484;28;20742;-66
2022/03/05 00:34:35;;;;;;;4.30;3.40;;;-0.20;1.00;;;;;;5054324;28;20214;-73
2022/03/05 00:37:00;;;;;;;4.10;3.30;;;-0.30;1.00;;;;;;5054580;28;20202;-68
2022/03/05 00:39:26;;;;;;;3.20;3.00;;;-0.30;1.00;;;;;;5054399;28;20418;-72
2022/03/05 00:41:51;;;;;;;3.37;3.07;;;-0.30;1.00;;;;;;5035705;28;20250;-73
2022/03/05 00:44:17;;;;;;;2.97;2.70;;;-0.30;1.00;;;;;;5033695;28;20759;-66
2022/03/05 00:46:43;;;;;;;3.27;3.07;;;-0.30;1.00;;;;;;5052007;28;20190;-66
2022/03/05 00:49:09;;;;;;;2.90;2.80;;;-0.40;1.00;;;;;;5054237;28;20389;-66
2022/03/05 00:51:34;;;;;;;3.20;2.73;;;-0.40;1.00;;;;;;5039374;28;20289;-72
2022/03/05 00:54:00;;;;;;;3.03;2.73;;;-0.40;1.00;;;;;;5035109;28;20180;-68
2022/03/05 00:56:26;;;;;;;2.83;2.63;;;-0.40;1.00;;;;;;5048535;28;20190;-66
2022/03/05 00:58:51;;;;;;;2.43;2.33;;;-0.40;1.00;;;;;;5053988;28;20203;-66
2022/03/05 01:01:17;;;;;;;2.30;2.20;;;-0.40;1.00;;;;;;5046066;28;20247;-73
2022/03/05 01:03:44;;;;;;;3.57;2.30;;;-0.30;1.00;;;;;;5049892;28;20183;-74
2022/03/05 01:06:10;;;;;;;3.35;2.50;;;-0.30;1.00;;;;;;5054900;28;20659;-66
2022/03/05 01:08:35;;;;;;;5.73;3.10;;;-0.30;1.00;;;;;;5053139;28;20205;-68
2022/03/05 01:11:01;;;;;;;3.40;3.10;;;-0.30;1.00;;;;;;5054820;28;20662;-67
2022/03/05 01:13:27;;;;;;;5.83;2.70;;;-0.30;1.00;;;;;;5046995;28;20171;-73
2022/03/05 01:15:53;;;;;;;2.07;1.97;;;-0.30;1.00;;;;;;5034736;28;20403;-65
2022/03/05 01:18:18;;;;;;;4.93;1.87;;;-0.30;1.00;;;;;;5040151;28;20418;-71
2022/03/05 01:20:44;;;;;;;2.33;2.13;;;-0.30;1.00;;;;;;5052969;28;20167;-69
2022/03/05 01:23:10;;;;;;;2.47;1.90;;;-0.20;1.00;;;;;;5046658;28;20446;-74
2022/03/05 01:25:35;;;;;;;6.83;2.37;;;-0.20;1.00;;;;;;5034426;28;20167;-67
2022/03/05 01:28:01;;;;;;;2.83;2.63;;;-0.20;1.00;;;;;;5040311;28;20199;-66
2022/03/05 01:30:27;;;;;;;2.80;2.60;;;-0.30;1.00;;;;;;5053559;28;20632;-70
2022/03/05 01:32:52;;;;;;;3.33;3.23;;;-0.30;1.00;;;;;;5049743;28;20199;-66
2022/03/05 01:35:18;;;;;;;2.30;2.20;;;-0.30;1.00;;;;;;5034349;28;20402;-73
2022/03/05 01:37:44;;;;;;;3.83;2.83;;;-0.30;1.00;;;;;;5039845;28;20540;-67
2022/03/05 01:40:10;;;;;;;2.40;2.30;;;-0.40;1.00;;;;;;5052687;28;20627;-66
2022/03/05 01:42:36;;;;;;;6.30;2.60;;;-0.40;1.00;;;;;;5049233;28;21009;-67
2022/03/05 01:45:02;;;;;;;3.17;2.97;;;-0.40;1.00;;;;;;5033259;28;20175;-74
2022/03/05 01:47:28;;;;;;;2.63;2.53;;;-0.40;1.00;;;;;;5036666;28;20229;-72
2022/03/05 01:49:54;;;;;;;1.90;1.70;;;-0.40;1.00;;;;;;5052987;28;20179;-71
2022/03/05 01:52:19;;;;;;;3.57;2.80;;;-0.40;1.00;;;;;;5051231;28;20199;-70
2022/03/05 01:54:45;;;;;;;2.73;2.20;;;-0.50;1.00;;;;;;5032866;28;20175;-73
2022/03/05 01:57:12;;;;;;;2.47;2.38;;;-0.50;1.00;;;;;;5033742;28;20182;-67
2022/03/05 01:59:37;;;;;;;2.20;1.98;;;-0.50;1.00;;;;;;5051968;28;20186;-66
2022/03/05 02:02:04;;;;;;;2.60;2.33;;;-0.50;1.00;;;;;;5053377;28;20264;-66
2022/03/05 02:04:29;;;;;;;2.78;2.35;;;-0.50;1.00;;;;;;5035586;28;20259;-70
2022/03/05 02:06:55;;;;;;;2.60;2.50;;;-0.50;1.00;;;;;;5032550;28;20207;-70
2022/03/05 02:09:21;;;;;;;2.83;2.10;;;-0.50;1.00;;;;;;5048781;28;20174;-66
2022/03/05 02:11:47;;;;;;;2.58;2.47;;;-0.50;1.00;;;;;;5053316;28;20216;-73
2022/03/05 02:14:17;;;;;;;3.27;2.70;;;-0.50;1.00;;;;;;5033704;28;20262;-73
2022/03/05 02:16:43;;;;;;;2.22;2.00;;;-0.50;1.00;;;;;;5033145;28;20413;-73
2022/03/05 02:19:09;;;;;;;3.00;2.80;;;-0.50;1.00;;;;;;5050919;28;20183;-69
2022/03/05 02:21:36;;;;;;;8.93;3.03;;;-0.50;1.00;;;;;;5053167;28;20202;-73
2022/03/05 02:24:02;;;;;;;2.42;2.30;;;-0.50;1.00;;;;;;5035942;28;20266;-67
2022/03/05 02:26:28;;;;;;;3.08;2.63;;;-0.50;1.00;;;;;;5032009;28;20168;-67
2022/03/05 02:28:53;;;;;;;2.30;2.20;;;-0.50;1.00;;;;;;5047607;28;20258;-73
2022/03/05 02:31:19;;;;;;;1.87;1.77;;;-0.50;1.00;;;;;;5053203;28;20441;-73
2022/03/05 02:33:45;;;;;;;3.07;2.80;;;-0.40;1.00;;;;;;5051704;28;20181;-66
2022/03/05 02:36:11;;;;;;;9.23;2.07;;;-0.40;1.00;;;;;;5052940;28;20169;-74
2022/03/05 02:38:37;;;;;;;1.97;1.87;;;-0.30;1.00;;;;;;5035783;28;20429;-67
2022/03/05 02:41:03;;;;;;;2.93;2.50;;;-0.20;1.00;;;;;;5033168;28;20195;-68
2022/03/05 02:43:29;;;;;;;3.07;2.23;;;-0.20;1.00;;;;;;5046894;28;20417;-74
2022/03/05 02:45:55;;;;;;;8.02;2.00;;;-0.20;1.00;;;;;;5053119;28;20392;-71
2022/03/05 02:48:21;;;;;;;3.87;2.13;;;-0.20;1.00;;;;;;5036534;28;20583;-74
2022/03/05 02:50:48;;;;;;;2.47;1.80;;;-0.20;1.00;;;;;;5033195;28;20187;-64
2022/03/05 02:53:14;;;;;;;3.17;2.45;;;-0.10;1.00;;;;;;5033156;28;20160;-67
2022/03/05 02:55:40;;;;;;;8.57;2.53;;;0.00;1.00;;;;;;5044229;28;20178;-70
2022/03/05 02:58:06;;;;;;;3.40;1.90;;;0.00;1.00;;;;;;5052817;28;20635;-64
2022/03/05 03:00:32;;;;;;;2.20;2.10;;;0.00;1.00;;;;;;5041469;28;20418;-66
2022/03/05 03:02:58;;;;;;;1.83;1.73;;;0.10;1.00;;;;;;5032959;28;20202;-71
2022/03/05 03:05:24;;;;;;;1.90;1.80;;;0.10;1.00;;;;;;5041933;28;20170;-71
2022/03/05 03:07:51;;;;;;;2.73;2.20;;;0.20;1.00;;;;;;5038347;28;20163;-63
2022/03/05 03:10:17;;;;;;;1.90;1.80;;;0.20;1.00;;;;;;5045429;28;20205;-64
2022/03/05 03:12:43;;;;;;;2.13;2.00;;;0.20;1.00;;;;;;5057530;28;20732;-72
2022/03/05 03:15:12;;;;;;;4.85;2.90;;;0.20;1.00;;;;;;5053657;28;20446;-68
2022/03/05 03:17:40;;;;;;;5.90;2.75;;;0.20;1.00;;;;;;5039452;28;20172;-68
2022/03/05 03:20:11;;;;;;;5.60;3.85;;;0.20;1.00;;;;;;5042904;28;20186;-68
2022/03/05 03:22:36;;;;;;;2.22;2.10;;;0.10;1.00;;;;;;5059090;28;20261;-64
2022/03/05 03:25:03;;;;;;;2.37;2.27;;;0.00;1.00;;;;;;5055614;28;20207;-65
2022/03/05 03:27:28;;;;;;;2.97;2.20;;;0.00;1.00;;;;;;5039314;28;20171;-63
2022/03/05 03:29:54;;;;;;;2.20;2.00;;;0.00;1.00;;;;;;5039519;28;20510;-67
2022/03/05 03:32:20;;;;;;;2.30;2.20;;;-0.10;1.00;;;;;;5059181;28;20663;-73
2022/03/05 03:34:45;;;;;;;4.20;2.53;;;-0.10;1.00;;;;;;5058883;28;20170;-66
2022/03/05 03:37:11;;;;;;;4.10;2.60;;;-0.10;1.00;;;;;;5039321;28;20178;-73
2022/03/05 03:39:37;;;;;;;8.10;2.70;;;-0.20;1.00;;;;;;5040112;28;20171;-67
2022/03/05 03:42:02;;;;;;;1.90;1.80;;;-0.20;1.00;;;;;;5058749;28;20699;-66
2022/03/05 03:44:28;;;;;;;2.20;2.10;;;-0.20;1.00;;;;;;5058682;28;20505;-73
2022/03/05 03:46:54;;;;;;;2.90;2.70;;;-0.30;1.00;;;;;;5038484;28;20433;-70
2022/03/05 03:49:19;;;;;;;5.33;2.33;;;-0.50;1.00;;;;;;5038303;28;20171;-74
2022/03/05 03:51:45;;;;;;;3.67;2.20;;;-0.30;1.00;;;;;;5057468;28;20567;-66
2022/03/05 03:54:11;;;;;;;1.93;1.80;;;-0.30;1.00;;;;;;5058254;28;20171;-69
2022/03/05 03:56:36;;;;;;;2.00;1.80;;;-0.30;1.00;;;;;;5038975;28;20214;-67
2022/03/05 03:59:02;;;;;;;2.57;2.33;;;-0.30;1.00;;;;;;5038248;28;20172;-67
2022/03/05 04:01:28;;;;;;;2.30;2.20;;;-0.30;1.00;;;;;;5056494;28;20206;-75
2022/03/05 04:03:53;;;;;;;3.00;2.00;;;-0.30;1.00;;;;;;5059073;28;20411;-73
2022/03/05 04:06:19;;;;;;;2.30;2.20;;;-0.30;1.00;;;;;;5056618;28;20174;-66
2022/03/05 04:08:45;;;;;;;2.27;2.17;;;-0.30;1.00;;;;;;5057931;28;20170;-73
2022/03/05 04:11:18;;;;;;;5.33;2.30;;;-0.20;1.00;;;;;;5043237;28;20268;-74
2022/03/05 04:13:45;;;;;;;2.40;2.20;;;-0.20;1.00;;;;;;5053136;28;20213;-66
2022/03/05 04:16:12;;;;;;;2.85;2.03;;;-0.10;1.00;;;;;;5058932;28;20632;-66
2022/03/05 04:18:37;;;;;;;1.90;1.80;;;-0.10;1.00;;;;;;5040720;28;20187;-66
2022/03/05 04:21:06;;;;;;;2.30;2.20;;;-0.10;1.00;;;;;;5035672;28;20191;-67
2022/03/05 04:23:32;;;;;;;1.88;1.77;;;-0.10;1.00;;;;;;5046937;28;20436;-67
2022/03/05 04:25:58;;;;;;;3.67;1.70;;;-0.20;1.00;;;;;;5053761;28;20183;-73
2022/03/05 04:28:24;;;;;;;3.80;2.30;;;-0.20;1.00;;;;;;5045354;28;20506;-67
2022/03/05 04:30:49;;;;;;;2.27;2.07;;;-0.20;1.00;;;;;;5034820;28;20562;-67
2022/03/05 04:33:15;;;;;;;4.60;2.10;;;-0.20;1.00;;;;;;5043443;28;20532;-66
2022/03/05 04:35:41;;;;;;;1.67;1.57;;;-0.20;1.00;;;;;;5055545;28;20405;-66
2022/03/05 04:38:06;;;;;;;2.47;2.27;;;-0.20;1.00;;;;;;5047276;28;20186;-68
2022/03/05 04:40:32;;;;;;;5.03;2.30;;;-0.10;1.00;;;;;;5034499;28;20233;-67
2022/03/05 04:42:59;;;;;;;2.20;2.10;;;-0.10;1.00;;;;;;5039114;28;20194;-69
2022/03/05 04:45:26;;;;;;;4.95;2.60;;;0.00;1.00;;;;;;5055219;28;20520;-66
2022/03/05 04:47:51;;;;;;;2.50;2.30;;;0.10;1.00;;;;;;5051785;28;20167;-69
2022/03/05 04:50:17;;;;;;;3.43;2.70;;;0.10;1.00;;;;;;5034290;28;20191;-64
2022/03/05 04:52:43;;;;;;;4.00;3.70;;;0.20;1.00;;;;;;5039766;28;20187;-71
2022/03/05 04:55:09;;;;;;;3.00;2.80;;;0.20;1.00;;;;;;5055067;28;20177;-64
2022/03/05 04:57:34;;;;;;;3.43;3.23;;;0.20;1.00;;;;;;5051243;28;20258;-64
2022/03/05 05:00:00;;;;;;;3.50;3.20;;;0.20;1.00;;;;;;5033983;28;20419;-71
2022/03/05 05:02:26;;;;;;;3.83;2.70;;;0.20;1.00;;;;;;5035453;28;20544;-66
2022/03/05 05:04:51;;;;;;;3.93;2.10;;;0.20;1.00;;;;;;5045898;28;20414;-64
2022/03/05 05:07:17;;;;;;;2.67;2.57;;;0.20;1.00;;;;;;5034803;28;20585;-64
2022/03/05 05:09:43;;;;;;;3.83;2.80;;;0.30;1.00;;;;;;5034068;28;20254;-72
2022/03/05 05:12:10;;;;;;;3.47;3.17;;;0.30;1.00;;;;;;5053449;28;20278;-71
2022/03/05 05:14:35;;;;;;;3.97;3.67;;;0.40;1.00;;;;;;5054770;28;20167;-71
2022/03/05 05:17:01;;;;;;;3.83;3.40;;;0.40;1.00;;;;;;5037161;28;20259;-71
2022/03/05 05:19:30;;;;;;;2.50;2.40;;;0.60;1.00;;;;;;5033506;28;20641;-65
2022/03/05 05:21:58;;;;;;;3.25;2.95;;;0.50;1.00;;;;;;5049876;28;20198;-65
2022/03/05 05:24:25;;;;;;;4.07;3.57;;;0.60;1.00;;;;;;5054597;28;20225;-67
2022/03/05 05:26:52;;;;;;;3.03;2.70;;;0.60;1.00;;;;;;5039294;28;20411;-64
2022/03/05 05:29:18;;;;;;;2.97;2.87;;;0.60;1.00;;;;;;5033387;28;20390;-64
2022/03/05 05:31:44;;;;;;;4.30;2.83;;;0.60;1.00;;;;;;5047344;28;20547;-72
2022/03/05 05:34:10;;;;;;;3.37;3.00;;;0.60;1.00;;;;;;5054221;28;20397;-70
2022/03/05 05:36:38;;;;;;;3.80;3.33;;;0.60;1.00;;;;;;5041282;28;20433;-67
2022/03/05 05:39:08;;;;;;;3.50;3.20;;;0.50;1.00;;;;;;5033353;28;20430;-71
2022/03/05 05:41:35;;;;;;;3.50;3.27;;;0.90;1.00;;;;;;5043775;28;20548;-71
2022/03/05 05:44:01;;;;;;;3.47;3.05;;;0.60;1.00;;;;;;5053959;28;20448;-64
2022/03/05 05:46:27;;;;;;;4.03;2.60;;;0.60;1.00;;;;;;5045088;28;20187;-71
2022/03/05 05:48:52;;;;;;;15.03;4.90;;;0.60;1.00;;;;;;5033175;28;20168;-70
2022/03/05 05:51:18;;;;;;;4.77;3.20;;;0.70;1.00;;;;;;5040565;28;20631;-71
2022/03/05 05:53:43;;;;;;;4.40;3.00;;;0.70;1.00;;;;;;5054005;28;20167;-72
2022/03/05 05:56:09;;;;;;;5.50;3.23;;;0.70;1.00;;;;;;5048610;28;20218;-64
2022/03/05 05:58:35;;;;;;;8.13;3.40;;;0.70;1.00;;;;;;5032964;28;20243;-66
2022/03/05 06:01:01;;;;;;;3.50;3.20;;;0.70;1.00;;;;;;5039766;28;20202;-72
2022/03/05 06:03:27;;;;;;;4.00;2.50;;;0.80;1.00;;;;;;5053545;28;20575;-69
2022/03/05 06:05:52;;;;;;;2.53;2.33;;;0.70;1.00;;;;;;5048112;28;20175;-70
2022/03/05 06:08:18;;;;;;;2.70;2.50;;;0.70;1.00;;;;;;5033808;28;20403;-64
2022/03/05 06:10:44;;;;;;;3.10;2.80;;;0.70;1.00;;;;;;5032592;28;20172;-72
2022/03/05 06:13:09;;;;;;;3.20;2.50;;;0.70;1.00;;;;;;5033756;28;20214;-66
2022/03/05 06:15:35;;;;;;;3.13;2.93;;;0.70;1.00;;;;;;5034566;28;20168;-64
2022/03/05 06:18:00;;;;;;;6.40;3.83;;;0.60;1.50;;;;;;5033127;28;20259;-66
2022/03/05 06:20:26;;;;;;;4.23;2.93;;;0.60;1.00;;;;;;5050500;28;20174;-72
2022/03/05 06:22:52;;;;;;;3.40;2.63;;;0.60;1.00;;;;;;5053296;28;20887;-64
2022/03/05 06:25:18;;;;;;;3.60;3.30;;;0.50;1.00;;;;;;5051702;28;20430;-64
2022/03/05 06:27:44;;;;;;;2.80;2.60;;;0.50;1.00;;;;;;5053369;28;20238;-72
2022/03/05 06:30:11;;;;;;;3.33;3.13;;;0.50;6.50;;;;;;5035091;28;20293;-64
2022/03/05 06:32:36;;;;;;;2.87;2.70;;;0.40;1.00;;;;;;5033169;28;20418;-64
2022/03/05 06:35:05;;;;;;;3.43;3.00;;;0.10;1.40;;;;;;5048479;28;20421;-70
2022/03/05 06:37:31;;;;;;;3.28;2.78;;;0.40;1.30;;;;;;5052539;28;20667;-71
2022/03/05 06:39:57;;;;;;;2.97;2.75;;;0.40;2.20;;;;;;5049933;28;20186;-68
2022/03/05 06:42:23;;;;;;;4.07;3.07;;;0.00;2.60;;;;;;5053234;28;20199;-71
2022/03/05 06:44:49;;;;;;;2.17;2.07;;;0.30;3.90;;;;;;5052749;28;20422;-65
2022/03/05 06:47:15;;;;;;;2.77;2.67;;;0.30;7.30;;;;;;5052981;28;20402;-70
2022/03/05 06:49:41;;;;;;;2.60;2.50;;;0.30;7.30;;;;;;5052155;28;20877;-71
2022/03/05 06:52:07;;;;;;;5.87;3.10;;;0.40;9.30;;;;;;5052770;28;20504;-71
2022/03/05 06:54:32;;;;;;;2.63;2.27;;;0.60;13.00;;;;;;5053082;28;20636;-68
2022/03/05 06:56:58;;;;;;;2.60;1.90;;;0.40;17.50;;;;;;5052427;28;20170;-65
2022/03/05 06:59:24;;;;;;;2.50;2.30;;;0.40;15.80;;;;;;5051891;28;20174;-72
2022/03/05 07:01:50;;;;;;;2.70;2.60;;;0.30;18.70;;;;;;5052828;28;20199;-66
2022/03/05 07:04:16;;;;;;;4.00;3.00;;;0.90;31.70;;;;;;5052980;28;20624;-73
2022/03/05 07:06:41;;;;;;;3.87;2.73;;;0.40;81.40;;;;;;5052980;28;20493;-76
2022/03/05 07:09:07;;;;;;;3.40;3.10;;;-0.30;24.90;;;;;;5052058;28;20163;-67
2022/03/05 07:11:33;;;;;;;2.93;2.53;;;0.40;26.00;;;;;;5052799;28;20536;-67
2022/03/05 07:13:59;;;;;;;2.93;2.70;;;0.40;35.60;;;;;;5052230;28;20250;-68
2022/03/05 07:16:25;;;;;;;2.60;2.40;;;0.50;41.20;;;;;;5050451;28;20171;-70
2022/03/05 07:18:51;;;;;;;3.20;2.90;;;0.60;86.40;;;;;;5051830;28;20182;-63
2022/03/05 07:21:16;;;;;;;7.13;3.17;;;0.60;56.20;;;;;;5032403;28;20218;-64
2022/03/05 07:23:42;;;;;;;3.30;2.80;;;0.70;64.20;;;;;;5032919;28;20242;-70
2022/03/05 07:26:07;;;;;;;3.20;2.73;;;0.80;74.20;;;;;;5049088;28;20171;-64
2022/03/05 07:28:33;;;;;;;3.20;3.00;;;0.80;74.20;;;;;;5051780;28;20163;-64
2022/03/05 07:30:59;;;;;;;11.60;3.23;;;0.90;74.30;;;;;;5037428;28;20192;-64
2022/03/05 07:33:26;;;;;;;3.33;2.60;;;1.00;83.00;;;;;;5032613;28;20521;-69
2022/03/05 07:35:52;;;;;;;4.33;3.00;;;1.10;89.80;;;;;;5045121;28;20224;-69
2022/03/05 07:38:18;;;;;;;3.13;2.80;;;1.10;91.90;;;;;;5052527;28;20852;-69
2022/03/05 07:40:43;;;;;;;3.17;2.97;;;1.60;94.30;;;;;;5039977;28;20425;-69
2022/03/05 07:43:09;;;;;;;4.50;3.57;;;1.30;96.30;;;;;;5033648;28;20450;-69
2022/03/05 07:45:35;;;;;;;5.97;2.90;;;1.40;99.20;;;;;;5033544;28;20164;-69
2022/03/05 07:48:02;;;;;;;2.87;2.07;;;1.50;99.90;;;;;;5033535;28;20696;-71
2022/03/05 07:50:27;;;;;;;3.43;3.17;;;1.50;99.90;;;;;;5031570;28;20667;-65
2022/03/05 07:52:53;;;;;;;2.87;2.67;;;1.60;99.90;;;;;;5039290;28;20437;-64
2022/03/05 07:55:19;;;;;;;3.57;2.73;;;1.70;99.90;;;;;;5056078;28;20171;-64
2022/03/05 07:57:48;;;;;;;8.50;3.20;;;1.80;99.90;;;;;;5051435;28;20170;-64
2022/03/05 08:00:14;;;;;;;2.87;2.60;;;1.90;99.90;;;;;;5041039;28;20425;-65
2022/03/05 08:02:40;;;;;;;3.60;3.03;;;2.00;99.90;;;;;;5052278;28;20464;-68
2022/03/05 08:05:05;;;;;;;2.80;2.60;;;2.10;99.90;;;;;;5036190;28;20489;-70
2022/03/05 08:07:31;;;;;;;4.50;3.40;;;2.20;99.90;;;;;;5037030;28;20728;-63
2022/03/05 08:09:57;;;;;;;3.00;2.80;;;2.30;99.90;;;;;;5045453;28;20641;-63
2022/03/05 08:12:22;;;;;;;4.03;2.40;;;2.30;98.10;;;;;;5053634;28;20257;-65
2022/03/05 08:14:48;;;;;;;3.10;2.63;;;2.50;95.50;;;;;;5055711;28;20181;-69
2022/03/05 08:17:14;;;;;;;3.17;2.97;;;2.50;91.10;;;;;;5039163;28;20233;-70
2022/03/05 08:19:41;;;;;;;2.63;2.50;;;2.60;88.80;;;;;;5035036;28;20402;-69
2022/03/05 08:22:07;;;;;;;7.00;2.50;;;2.70;75.70;;;;;;5049973;28;20453;-69
2022/03/05 08:24:32;;;;;;;2.90;2.80;;;2.80;62.10;;;;;;5055721;28;20433;-66
2022/03/05 08:26:58;;;;;;;3.03;2.63;;;2.80;48.20;;;;;;5040809;28;20969;-63
2022/03/05 08:29:24;;;;;;;2.70;2.50;;;2.90;36.50;;;;;;5034460;28;20202;-70
2022/03/05 08:31:50;;;;;;;3.43;2.80;;;3.00;27.10;;;;;;5046333;28;20195;-62
2022/03/05 08:34:16;;;;;;;3.00;2.90;;;3.10;17.20;;;;;;5055576;28;20167;-69
2022/03/05 08:36:42;;;;;;;2.40;2.20;;;3.10;9.90;;;;;;5054832;28;20421;-69
2022/03/05 08:39:08;;;;;;;2.40;2.23;;;3.30;4.00;;;;;;5054547;28;20412;-69
2022/03/05 08:41:34;;;;;;;2.77;2.57;;;3.50;1.00;;;;;;5055136;28;20217;-62
2022/03/05 08:44:00;;;;;;;2.50;2.40;;;3.60;1.00;;;;;;5055041;28;20421;-63
2022/03/05 08:46:26;;;;;;;2.33;2.10;;;3.70;1.00;;;;;;5055028;28;20398;-63
2022/03/05 08:48:51;;;;;;;2.57;2.43;;;3.80;1.00;;;;;;5054256;28;20206;-65
2022/03/05 08:51:17;;;;;;;2.53;2.43;;;3.90;1.00;;;;;;5054987;28;20252;-63
2022/03/05 08:53:44;;;;;;;4.00;1.70;;;3.90;1.00;;;;;;5055279;28;20224;-68
2022/03/05 08:56:10;;;;;;;2.13;2.03;;;4.00;1.00;;;;;;5055094;28;20431;-69
2022/03/05 08:58:36;;;;;;;2.10;2.00;;;4.10;1.00;;;;;;5052742;28;20279;-68
2022/03/05 09:01:02;;;;;;;2.30;2.20;;;4.20;1.00;;;;;;5054613;28;20191;-68
2022/03/05 09:03:28;;;;;;;2.30;2.10;;;4.20;1.00;;;;;;5054020;28;20192;-64
2022/03/05 09:05:54;;;;;;;3.37;2.30;;;4.30;1.00;;;;;;5054843;28;20413;-69
2022/03/05 09:08:20;;;;;;;1.93;1.83;;;4.30;1.00;;;;;;5054934;28;20490;-69
2022/03/05 09:10:47;;;;;;;7.30;2.70;;;4.40;1.00;;;;;;5053882;28;20489;-63
2022/03/05 09:13:13;;;;;;;2.40;2.20;;;4.50;1.00;;;;;;5054656;28;20167;-69
2022/03/05 09:15:39;;;;;;;1.80;1.70;;;4.50;1.00;;;;;;5054560;28;20452;-63
2022/03/05 09:18:04;;;;;;;2.40;2.07;;;4.60;1.00;;;;;;5054699;28;20404;-63
2022/03/05 09:20:31;;;;;;;3.30;2.30;;;4.80;1.00;;;;;;5053515;28;20173;-68
2022/03/05 09:22:58;;;;;;;2.00;1.90;;;5.10;1.00;;;;;;5053953;28;20223;-62
2022/03/05 09:25:25;;;;;;;2.53;2.33;;;5.40;1.00;;;;;;5054506;28;20400;-63
2022/03/05 09:27:52;;;;;;;2.67;2.43;;;5.50;1.00;;;;;;5054645;28;20433;-66
2022/03/05 09:30:18;;;;;;;2.90;2.57;;;5.80;1.00;;;;;;5053576;28;20433;-64
2022/03/05 09:32:44;;;;;;;2.43;2.07;;;5.70;1.00;;;;;;5054349;28;20429;-64
2022/03/05 09:35:10;;;;;;;2.57;2.47;;;5.50;1.00;;;;;;5054386;28;20394;-69
2022/03/05 09:37:36;;;;;;;1.73;1.63;;;5.40;1.00;;;;;;5054253;28;20774;-69
2022/03/05 09:40:04;;;;;;;2.70;2.50;;;5.30;1.00;;;;;;5052749;28;20401;-66
2022/03/05 09:42:30;;;;;;;2.80;2.63;;;5.10;1.00;;;;;;5054034;28;20466;-63
2022/03/05 09:44:56;;;;;;;3.63;2.53;;;5.10;1.00;;;;;;5054169;28;20409;-69
2022/03/05 09:47:22;;;;;;;4.57;2.53;;;5.10;1.00;;;;;;5053978;28;20400;-70
2022/03/05 09:49:48;;;;;;;2.43;2.23;;;5.30;1.00;;;;;;5053142;28;20163;-65
2022/03/05 09:52:14;;;;;;;3.80;2.93;;;6.00;1.00;;;;;;5053924;28;20793;-67
2022/03/05 09:54:40;;;;;;;2.93;2.27;;;6.20;1.00;;;;;;5053929;28;20401;-64
2022/03/05 09:57:11;;;;;;;2.83;2.63;;;6.10;1.00;;;;;;5054004;28;20408;-70
2022/03/05 09:59:37;;;;;;;3.43;2.20;;;6.10;1.00;;;;;;5052480;28;20174;-72
2022/03/05 10:02:05;;;;;;;2.17;2.07;;;6.80;1.00;;;;;;5053592;28;20460;-65
2022/03/05 10:04:31;;;;;;;2.00;1.90;;;6.60;1.00;;;;;;5053689;28;20409;-64
2022/03/05 10:07:11;;;;;;;2.00;1.47;;;6.50;1.00;;;;;;5053682;28;20789;-68
2022/03/05 10:09:38;;;;;;;5.50;2.23;;;6.50;1.00;;;;;;5052674;28;20485;-72
2022/03/05 10:12:35;;;;;;;2.33;2.20;;;6.50;1.00;;;;;;5039360;28;20450;-67
2022/03/05 10:15:08;;;;;;;5.43;2.13;;;6.60;1.00;;;;;;5020973;28;20509;-72
2022/03/05 10:17:52;;;;;;;3.47;2.33;;;6.60;1.00;;;;;;5033412;28;20422;-72
2022/03/05 10:20:19;;;;;;;3.03;2.50;;;7.00;1.00;;;;;;5032501;28;20460;-68
2022/03/05 10:23:05;;;;;;;2.43;2.23;;;7.10;99.90;;;;;;5034921;28;20481;-72
2022/03/05 10:25:35;;;;;;;2.70;2.37;;;6.90;99.90;;;;;;5033552;28;20923;-66
2022/03/05 10:28:12;;;;;;;2.13;2.03;;;6.50;99.90;;;;;;5033211;28;20415;-62
2022/03/05 10:30:43;;;;;;;2.60;2.37;;;6.30;99.90;;;;;;5035761;28;20417;-68
2022/03/05 10:33:36;;;;;;;2.70;2.50;;;6.10;99.90;;;;;;5053214;28;20453;-69
2022/03/05 10:36:09;;;;;;;2.43;2.33;;;5.90;99.90;;;;;;5045219;28;20509;-73
2022/03/05 10:38:50;;;;;;;6.13;2.53;;;6.30;99.90;;;;;;5051629;28;20421;-74
2022/03/05 10:41:19;;;;;;;3.20;2.03;;;7.70;99.90;;;;;;5052319;28;21096;-74
2022/03/05 10:43:47;;;;;;;3.70;2.83;;;9.10;99.90;;;;;;5033632;28;20419;-73
2022/03/05 10:46:16;;;;;;;6.77;2.33;;;10.10;99.90;;;;;;5033305;28;20416;-67
2022/03/05 10:48:44;;;;;;;1.90;1.80;;;10.60;99.90;;;;;;5051668;28;20505;-74
2022/03/05 10:51:15;;;;;;;4.50;2.37;;;10.90;99.90;;;;;;5052028;28;20455;-74
2022/03/05 10:53:43;;;;;;;1.97;1.67;;;9.80;99.90;;;;;;5033713;28;20421;-69
2022/03/05 10:56:20;;;;;;;1.93;1.83;;;11.20;99.90;;;;;;5031666;28;20397;-71
2022/03/05 10:59:08;;;;;;;3.87;2.00;;;11.40;99.90;;;;;;5034619;28;20456;-73
2022/03/05 11:01:37;;;;;;;1.93;1.80;;;11.40;99.90;;;;;;5037054;28;20464;-75
2022/03/05 11:04:04;;;;;;;2.00;1.90;;;11.30;99.90;;;;;;5035750;28;20459;-74
2022/03/05 11:06:29;;;;;;;1.70;1.60;;;11.20;99.90;;;;;;5046507;28;20490;-69
2022/03/05 11:08:56;;;;;;;5.13;2.30;;;10.50;99.90;;;;;;5028922;28;20516;-66
2022/03/05 11:11:22;;;;;;;2.77;2.57;;;9.60;99.90;;;;;;5047536;28;20278;-72
2022/03/05 11:13:48;;;;;;;2.10;2.00;;;8.80;99.90;;;;;;5046180;28;20852;-69
2022/03/05 11:16:14;;;;;;;2.17;2.07;;;8.70;99.90;;;;;;5031545;28;20532;-67
2022/03/05 11:18:40;;;;;;;2.37;2.17;;;8.60;99.90;;;;;;5030424;28;20422;-75
2022/03/05 11:21:07;;;;;;;2.63;2.43;;;8.60;99.90;;;;;;5032471;28;20671;-67
2022/03/05 11:23:35;;;;;;;5.33;2.57;;;8.30;99.90;;;;;;5040225;28;20431;-67
2022/03/05 11:26:02;;;;;;;1.60;1.50;;;8.10;99.90;;;;;;5032115;28;20476;-67
2022/03/05 11:28:40;;;;;;;3.30;2.43;;;8.00;99.90;;;;;;5044292;28;20794;-73
2022/03/05 11:31:15;;;;;;;2.20;2.10;;;7.80;99.90;;;;;;5049020;28;20446;-73
2022/03/05 11:33:43;;;;;;;3.30;2.60;;;7.50;99.90;;;;;;5036431;28;20853;-73
2022/03/05 11:36:27;;;;;;;2.50;2.40;;;7.20;99.90;;;;;;5039671;28;20421;-74
2022/03/05 11:39:09;;;;;;;1.70;1.60;;;7.00;99.90;;;;;;5053011;28;20425;-68
2022/03/05 11:41:54;;;;;;;2.30;2.20;;;6.70;99.90;;;;;;5039952;28;20468;-65
2022/03/05 11:44:28;;;;;;;2.37;2.17;;;6.60;99.90;;;;;;5035501;28;20814;-65
2022/03/05 11:47:18;;;;;;;2.30;2.20;;;6.70;99.90;;;;;;5040083;28;20498;-65
2022/03/05 11:49:59;;;;;;;2.33;2.23;;;6.50;99.90;;;;;;5035721;28;20773;-67
2022/03/05 11:52:39;;;;;;;3.03;2.70;;;6.50;99.90;;;;;;5035165;28;20642;-74
2022/03/05 11:55:11;;;;;;;2.40;2.20;;;6.40;99.90;;;;;;5042553;28;20425;-68
2022/03/05 11:58:03;;;;;;;2.10;1.90;;;6.10;99.90;;;;;;5040474;28;20878;-64
2022/03/05 12:00:31;;;;;;;2.20;2.10;;;5.80;99.90;;;;;;5033960;28;20776;-73
2022/03/05 12:02:59;;;;;;;2.17;1.90;;;5.70;99.90;;;;;;5036568;28;20471;-71
2022/03/05 12:05:51;;;;;;;3.63;1.80;;;6.00;99.90;;;;;;5033893;28;20431;-65
2022/03/05 12:08:28;;;;;;;4.70;2.57;;;6.20;99.90;;;;;;5037666;28;20995;-73
2022/03/05 12:11:14;;;;;;;2.00;1.90;;;6.30;99.90;;;;;;5053802;28;20525;-65
2022/03/05 12:13:44;;;;;;;2.63;1.90;;;6.40;99.90;;;;;;5041615;28;20429;-65
2022/03/05 12:16:27;;;;;;;2.53;2.33;;;6.40;99.90;;;;;;5051821;28;20483;-68
2022/03/05 12:18:56;;;;;;;2.03;1.93;;;6.20;99.90;;;;;;5047025;28;20428;-72
2022/03/05 12:21:33;;;;;;;2.50;2.30;;;6.00;99.90;;;;;;5035686;28;20820;-64
2022/03/05 12:24:08;;;;;;;5.20;2.83;;;5.90;99.90;;;;;;5044753;28;20422;-64
2022/03/05 12:26:55;;;;;;;2.60;2.37;;;5.90;99.90;;;;;;5039162;28;20424;-63
2022/03/05 12:29:21;;;;;;;2.00;1.90;;;5.80;99.90;;;;;;5034480;28;20492;-63
2022/03/05 12:31:47;;;;;;;3.43;1.97;;;5.60;99.90;;;;;;5049197;28;20965;-71
2022/03/05 12:34:19;;;;;;;2.27;2.17;;;5.60;99.90;;;;;;5054089;28;20640;-62
2022/03/05 12:36:46;;;;;;;2.30;2.20;;;5.50;99.90;;;;;;5049061;28;20190;-72
2022/03/05 12:39:14;;;;;;;2.67;2.47;;;5.70;99.90;;;;;;5035912;28;20421;-71
2022/03/05 12:41:42;;;;;;;2.40;2.10;;;5.80;99.90;;;;;;5054546;28;20463;-72
2022/03/05 12:44:11;;;;;;;2.63;2.43;;;5.70;99.90;;;;;;5047510;28;20945;-70
2022/03/05 12:46:37;;;;;;;3.93;2.70;;;5.50;99.90;;;;;;5045487;28;20431;-71
2022/03/05 12:49:07;;;;;;;1.87;1.77;;;5.60;99.90;;;;;;5048624;28;20430;-64
2022/03/05 12:51:32;;;;;;;2.30;2.20;;;5.70;99.90;;;;;;5035044;28;20242;-70
2022/03/05 12:54:03;;;;;;;9.00;2.80;;;5.80;99.90;;;;;;5040140;28;20835;-63
2022/03/05 12:56:28;;;;;;;4.30;2.43;;;5.90;99.90;;;;;;5052932;28;20432;-68
2022/03/05 12:58:57;;;;;;;2.43;2.23;;;5.60;99.90;;;;;;5040335;28;20555;-63
2022/03/05 13:01:23;;;;;;;3.00;2.30;;;5.50;99.90;;;;;;5050304;28;20286;-63